Time;durP1;ratioP1;P1;durP2;ratioP2;P2;SDS_P1;SDS_P2;PMS_P1;PMS_P2;Temp;Humidity;BMP_temperature;BMP_pressure;BME280_temperature;BME280_humidity;BME280_pressure;Samples;Min_cycle;Max_cycle;Signal;HPM_P1;HPM_P2
2021/08/22 00:02:20;;;;;;;3.80;3.40;;;24.40;60.20;;;;;;4982947;28;20398;-66
2021/08/22 00:04:46;;;;;;;4.07;3.28;;;24.40;60.20;;;;;;4982292;28;20418;-66
2021/08/22 00:07:12;;;;;;;3.80;3.40;;;24.40;60.20;;;;;;4982169;28;20398;-64
2021/08/22 00:09:38;;;;;;;3.80;3.40;;;24.40;60.20;;;;;;4981766;28;20398;-63
2021/08/22 00:12:05;;;;;;;3.97;3.10;;;24.40;60.20;;;;;;4982310;28;20473;-63
2021/08/22 00:14:30;;;;;;;3.50;3.13;;;24.30;60.20;;;;;;4980906;28;20430;-66
2021/08/22 00:16:56;;;;;;;3.55;2.95;;;24.30;60.20;;;;;;4981868;28;20894;-66
2021/08/22 00:19:22;;;;;;;3.30;2.80;;;24.30;60.20;;;;;;4982286;28;20954;-66
2021/08/22 00:21:47;;;;;;;3.47;3.00;;;24.30;60.20;;;;;;4982116;28;20448;-63
2021/08/22 00:24:13;;;;;;;3.35;3.03;;;24.30;60.20;;;;;;4982406;28;20453;-66
2021/08/22 00:26:39;;;;;;;3.80;3.10;;;24.30;60.20;;;;;;4982270;28;20460;-65
2021/08/22 00:29:05;;;;;;;3.33;2.97;;;24.30;60.20;;;;;;4981993;28;20392;-67
2021/08/22 00:31:30;;;;;;;3.60;3.10;;;24.30;60.20;;;;;;4981715;28;20488;-66
2021/08/22 00:33:56;;;;;;;3.58;3.00;;;24.30;60.10;;;;;;4982134;28;20390;-65
2021/08/22 00:36:22;;;;;;;3.85;3.35;;;24.30;60.10;;;;;;4981870;28;20420;-63
2021/08/22 00:38:48;;;;;;;3.47;2.93;;;24.30;60.10;;;;;;4981848;28;20493;-66
2021/08/22 00:41:14;;;;;;;3.35;2.92;;;24.30;60.20;;;;;;4981286;28;20450;-65
2021/08/22 00:43:48;;;;;;;3.78;3.20;;;24.30;60.20;;;;;;4982304;28;20453;-66
2021/08/22 00:46:14;;;;;;;3.00;2.70;;;24.30;60.20;;;;;;4983072;28;20893;-67
2021/08/22 00:48:42;;;;;;;3.58;3.08;;;24.30;60.40;;;;;;4982430;28;20398;-66
2021/08/22 00:51:08;;;;;;;3.28;2.90;;;24.30;60.50;;;;;;4983200;28;20434;-67
2021/08/22 00:53:37;;;;;;;3.40;2.95;;;24.30;60.50;;;;;;4981648;28;21474;-64
2021/08/22 00:56:04;;;;;;;3.58;2.97;;;24.30;60.50;;;;;;4981398;28;20398;-64
2021/08/22 00:58:31;;;;;;;3.58;3.13;;;24.30;60.50;;;;;;4982904;28;20899;-66
2021/08/22 01:00:59;;;;;;;3.63;3.00;;;24.30;60.80;;;;;;5014344;28;20410;-67
2021/08/22 01:04:02;;;;;;;3.63;2.80;;;24.30;60.60;;;;;;4982516;28;21566;-64
2021/08/22 01:06:43;;;;;;;3.70;2.90;;;24.30;60.50;;;;;;4982309;28;20426;-67
2021/08/22 01:09:20;;;;;;;5.22;2.92;;;24.30;60.40;;;;;;4979581;28;20395;-66
2021/08/22 01:11:48;;;;;;;4.65;3.00;;;24.30;60.40;;;;;;4982568;28;20410;-66
2021/08/22 01:14:21;;;;;;;4.28;3.20;;;24.30;60.40;;;;;;4982800;28;20490;-67
2021/08/22 01:16:53;;;;;;;3.92;2.92;;;24.30;60.40;;;;;;4981300;28;20395;-67
2021/08/22 01:19:22;;;;;;;3.90;2.83;;;24.30;60.40;;;;;;4980070;28;20399;-62
2021/08/22 01:21:48;;;;;;;5.15;3.10;;;24.30;60.40;;;;;;4981752;28;20398;-65
2021/08/22 01:24:18;;;;;;;4.50;2.90;;;24.20;60.50;;;;;;4981969;28;20386;-66
2021/08/22 01:26:44;;;;;;;3.90;2.90;;;24.30;60.80;;;;;;4981924;28;20493;-64
2021/08/22 01:29:10;;;;;;;4.38;2.80;;;24.30;60.80;;;;;;4982614;28;20456;-65
2021/08/22 01:31:40;;;;;;;4.97;2.70;;;24.30;60.80;;;;;;4982898;28;20408;-63
2021/08/22 01:34:06;;;;;;;3.77;2.67;;;24.30;60.80;;;;;;4983260;28;20390;-63
2021/08/22 01:36:35;;;;;;;4.03;3.00;;;24.30;60.80;;;;;;4983114;28;20409;-65
2021/08/22 01:39:00;;;;;;;3.58;2.88;;;24.30;60.70;;;;;;4982703;28;20387;-63
2021/08/22 01:41:27;;;;;;;3.58;2.88;;;24.20;60.60;;;;;;4981195;28;20433;-66
2021/08/22 01:43:53;;;;;;;3.33;2.80;;;24.20;60.70;;;;;;4982765;28;20465;-66
2021/08/22 01:46:27;;;;;;;3.50;2.80;;;24.20;60.60;;;;;;4981987;28;20433;-65
2021/08/22 01:48:54;;;;;;;3.42;2.80;;;24.20;60.60;;;;;;4982756;28;20472;-66
2021/08/22 01:51:20;;;;;;;5.80;2.97;;;24.20;60.60;;;;;;4982627;28;20406;-65
2021/08/22 01:53:46;;;;;;;3.30;2.83;;;24.20;60.60;;;;;;4982703;28;20378;-66
2021/08/22 01:56:12;;;;;;;3.58;3.10;;;24.20;60.50;;;;;;4982591;28;20475;-67
2021/08/22 01:58:37;;;;;;;3.30;3.00;;;24.20;60.50;;;;;;4981432;28;20509;-66
2021/08/22 02:01:03;;;;;;;4.00;2.92;;;24.20;60.50;;;;;;4983499;28;20394;-66
2021/08/22 02:03:54;;;;;;;3.25;2.80;;;24.20;60.50;;;;;;4985943;28;20913;-65
2021/08/22 02:06:26;;;;;;;3.65;3.05;;;24.20;60.50;;;;;;4986085;28;20822;-66
2021/08/22 02:08:57;;;;;;;3.10;2.73;;;24.20;60.50;;;;;;4986302;28;20448;-66
2021/08/22 02:11:27;;;;;;;3.60;2.97;;;24.20;60.50;;;;;;4985945;28;20417;-66
2021/08/22 02:13:55;;;;;;;3.70;2.72;;;24.20;60.50;;;;;;4986075;28;20401;-66
2021/08/22 02:16:24;;;;;;;3.53;2.90;;;24.20;60.50;;;;;;4986309;28;20394;-66
2021/08/22 02:18:52;;;;;;;3.05;2.70;;;24.20;60.50;;;;;;4984676;28;20398;-66
2021/08/22 02:21:22;;;;;;;3.40;2.75;;;24.20;60.50;;;;;;4985441;28;20443;-67
2021/08/22 02:23:50;;;;;;;3.13;2.83;;;24.20;60.50;;;;;;4984792;28;20981;-66
2021/08/22 02:26:18;;;;;;;3.30;2.88;;;24.20;60.50;;;;;;4985682;28;20425;-65
2021/08/22 02:28:44;;;;;;;3.15;2.83;;;24.10;60.40;;;;;;4985653;28;20391;-66
2021/08/22 02:31:13;;;;;;;3.07;2.67;;;24.20;60.40;;;;;;4985633;28;20774;-66
2021/08/22 02:33:38;;;;;;;3.20;2.60;;;24.20;60.50;;;;;;4984489;28;20390;-62
2021/08/22 02:36:04;;;;;;;3.37;2.77;;;24.10;60.40;;;;;;4985311;28;20453;-66
2021/08/22 02:38:29;;;;;;;2.88;2.58;;;24.10;60.40;;;;;;4985270;28;20390;-64
2021/08/22 02:40:55;;;;;;;3.50;2.80;;;24.10;60.40;;;;;;4984636;28;20807;-67
2021/08/22 02:43:21;;;;;;;3.20;2.53;;;24.20;60.40;;;;;;4985483;28;21019;-67
2021/08/22 02:45:46;;;;;;;3.53;2.85;;;24.10;60.40;;;;;;4985216;28;20966;-66
2021/08/22 02:48:13;;;;;;;3.90;3.00;;;24.10;60.40;;;;;;4985550;28;20390;-66
2021/08/22 02:50:38;;;;;;;3.50;2.83;;;24.10;60.40;;;;;;5016939;28;20740;-66
2021/08/22 02:53:05;;;;;;;3.60;3.10;;;24.10;60.40;;;;;;4985367;28;20389;-66
2021/08/22 02:55:31;;;;;;;3.10;2.80;;;24.10;60.40;;;;;;4985027;28;20409;-66
2021/08/22 02:57:56;;;;;;;3.60;3.00;;;24.10;60.40;;;;;;4985425;28;20390;-66
2021/08/22 03:00:23;;;;;;;3.30;3.00;;;24.10;60.40;;;;;;4985210;28;20413;-63
2021/08/22 03:02:48;;;;;;;3.42;2.90;;;24.10;60.40;;;;;;4985420;28;20386;-67
2021/08/22 03:05:14;;;;;;;3.67;3.10;;;24.10;60.40;;;;;;4984972;28;20500;-67
2021/08/22 03:07:40;;;;;;;3.40;2.90;;;24.10;60.40;;;;;;4985066;28;20382;-66
2021/08/22 03:10:06;;;;;;;3.55;2.80;;;24.10;60.40;;;;;;4985320;28;20425;-65
2021/08/22 03:12:32;;;;;;;3.30;2.83;;;24.10;60.40;;;;;;4985049;28;20393;-66
2021/08/22 03:14:58;;;;;;;3.20;2.80;;;24.10;60.40;;;;;;4984986;28;20390;-66
2021/08/22 03:17:24;;;;;;;3.43;2.87;;;24.10;60.40;;;;;;4985298;28;20969;-67
2021/08/22 03:19:51;;;;;;;3.40;3.00;;;24.10;60.40;;;;;;4984748;28;20394;-67
2021/08/22 03:22:17;;;;;;;3.15;2.75;;;24.10;60.40;;;;;;4984932;28;20386;-66
2021/08/22 03:24:43;;;;;;;4.13;3.22;;;24.10;60.70;;;;;;4984915;28;20418;-62
2021/08/22 03:27:09;;;;;;;3.23;2.93;;;24.10;60.40;;;;;;4984847;28;20900;-66
2021/08/22 03:29:34;;;;;;;3.22;2.92;;;24.10;60.40;;;;;;4984344;28;20847;-65
2021/08/22 03:32:00;;;;;;;3.50;3.00;;;24.00;60.40;;;;;;4984767;28;20406;-66
2021/08/22 03:34:25;;;;;;;3.28;2.95;;;24.00;60.30;;;;;;4984562;28;20398;-62
2021/08/22 03:36:51;;;;;;;3.40;2.80;;;24.10;60.40;;;;;;4984533;28;20450;-67
2021/08/22 03:39:17;;;;;;;3.90;3.00;;;24.00;60.40;;;;;;4984232;28;20396;-66
2021/08/22 03:41:42;;;;;;;3.95;3.03;;;24.10;60.40;;;;;;4984030;28;20850;-67
2021/08/22 03:44:09;;;;;;;3.97;3.00;;;24.00;60.40;;;;;;4984363;28;20469;-66
2021/08/22 03:46:34;;;;;;;3.60;3.10;;;24.00;60.40;;;;;;4984398;28;20465;-65
2021/08/22 03:49:00;;;;;;;3.10;2.40;;;24.00;60.40;;;;;;4983473;28;20418;-63
2021/08/22 03:51:26;;;;;;;3.43;3.07;;;24.00;60.40;;;;;;4983933;28;20410;-64
2021/08/22 03:53:52;;;;;;;3.30;3.00;;;24.00;60.40;;;;;;4984271;28;20399;-66
2021/08/22 03:56:18;;;;;;;3.85;2.90;;;24.00;60.40;;;;;;4984070;28;20406;-65
2021/08/22 03:58:44;;;;;;;3.83;2.90;;;24.00;60.40;;;;;;4984378;28;20462;-66
2021/08/22 04:01:09;;;;;;;3.40;2.75;;;24.00;60.40;;;;;;4984074;28;20573;-66
2021/08/22 04:03:39;;;;;;;4.35;3.30;;;24.00;60.40;;;;;;4983693;28;20386;-66
2021/08/22 04:06:06;;;;;;;3.37;2.80;;;24.00;60.40;;;;;;4984086;28;20427;-65
2021/08/22 04:08:31;;;;;;;3.53;3.03;;;24.00;60.40;;;;;;4984086;28;20391;-65
2021/08/22 04:10:58;;;;;;;3.65;2.90;;;24.00;60.40;;;;;;4983009;28;20419;-66
2021/08/22 04:13:23;;;;;;;3.78;2.90;;;24.00;60.40;;;;;;4983860;28;20405;-66
2021/08/22 04:15:49;;;;;;;3.13;2.73;;;24.00;60.40;;;;;;4983472;28;20402;-66
2021/08/22 04:18:16;;;;;;;4.25;3.30;;;24.00;60.40;;;;;;4983844;28;20398;-66
2021/08/22 04:20:42;;;;;;;4.32;2.80;;;24.00;60.40;;;;;;4983534;28;20405;-66
2021/08/22 04:23:08;;;;;;;3.40;2.90;;;24.00;60.40;;;;;;4983510;28;20402;-66
2021/08/22 04:25:35;;;;;;;4.40;2.72;;;24.00;60.40;;;;;;4983152;28;20429;-63
2021/08/22 04:28:00;;;;;;;3.30;2.92;;;24.00;60.40;;;;;;4983660;28;20389;-65
2021/08/22 04:30:26;;;;;;;3.13;2.83;;;24.00;60.40;;;;;;4983764;28;20398;-66
2021/08/22 04:32:52;;;;;;;3.67;3.08;;;24.00;60.40;;;;;;4983785;28;20401;-62
2021/08/22 04:35:17;;;;;;;3.22;2.80;;;24.00;60.40;;;;;;4983638;28;20421;-66
2021/08/22 04:37:43;;;;;;;3.15;2.83;;;23.90;60.40;;;;;;4982928;28;20398;-66
2021/08/22 04:40:09;;;;;;;3.67;2.90;;;24.00;60.50;;;;;;4983563;28;20564;-64
2021/08/22 04:42:35;;;;;;;3.20;2.90;;;23.90;60.40;;;;;;4983309;28;20429;-66
2021/08/22 04:45:01;;;;;;;3.47;3.00;;;23.90;60.40;;;;;;4983491;28;20422;-66
2021/08/22 04:47:27;;;;;;;3.50;2.95;;;23.90;60.40;;;;;;4983558;28;20477;-65
2021/08/22 04:49:53;;;;;;;3.60;2.93;;;23.90;60.40;;;;;;4982930;28;20734;-67
2021/08/22 04:52:19;;;;;;;3.63;3.00;;;23.90;60.40;;;;;;4982135;28;20429;-65
2021/08/22 04:54:44;;;;;;;4.80;3.10;;;23.90;60.40;;;;;;4982643;28;20476;-65
2021/08/22 04:57:10;;;;;;;3.13;2.83;;;23.90;60.40;;;;;;4982901;28;20397;-66
2021/08/22 04:59:36;;;;;;;3.30;2.90;;;23.90;60.40;;;;;;4982825;28;20390;-65
2021/08/22 05:02:01;;;;;;;4.30;3.00;;;23.90;60.40;;;;;;4983026;28;20387;-65
2021/08/22 05:04:28;;;;;;;4.40;3.30;;;23.90;60.40;;;;;;4983103;28;20406;-66
2021/08/22 05:06:55;;;;;;;4.97;3.10;;;23.90;59.80;;;;;;4982551;28;20929;-62
2021/08/22 05:09:20;;;;;;;4.80;3.42;;;23.90;58.70;;;;;;4983828;28;20406;-66
2021/08/22 05:11:46;;;;;;;4.78;3.40;;;23.90;60.00;;;;;;4982773;28;20410;-64
2021/08/22 05:14:12;;;;;;;5.73;3.60;;;23.90;59.50;;;;;;4983794;28;20411;-67
2021/08/22 05:16:38;;;;;;;6.20;3.60;;;23.90;59.10;;;;;;4983553;28;20509;-66
2021/08/22 05:19:03;;;;;;;4.70;3.67;;;24.00;59.10;;;;;;4983430;28;20456;-64
2021/08/22 05:21:29;;;;;;;6.30;3.75;;;23.90;59.10;;;;;;4983008;28;20394;-64
2021/08/22 05:23:55;;;;;;;6.10;3.73;;;23.90;59.10;;;;;;4982119;28;20906;-64
2021/08/22 05:26:20;;;;;;;5.90;3.72;;;23.90;59.10;;;;;;4982816;28;20926;-64
2021/08/22 05:28:46;;;;;;;6.97;3.90;;;23.90;59.40;;;;;;4983009;28;20387;-64
2021/08/22 05:31:11;;;;;;;5.23;3.50;;;23.90;59.40;;;;;;4982155;28;20728;-65
2021/08/22 05:33:37;;;;;;;6.80;3.80;;;23.90;59.70;;;;;;4981567;28;20536;-63
2021/08/22 05:36:21;;;;;;;6.10;3.80;;;23.90;59.90;;;;;;4984997;28;20859;-65
2021/08/22 05:38:47;;;;;;;6.88;3.65;;;23.90;60.10;;;;;;4986455;28;20477;-62
2021/08/22 05:41:13;;;;;;;5.50;3.80;;;23.90;60.30;;;;;;4986763;28;20468;-65
2021/08/22 05:43:39;;;;;;;5.03;3.53;;;23.90;60.70;;;;;;4986328;28;20390;-64
2021/08/22 05:46:05;;;;;;;4.20;3.33;;;23.90;60.80;;;;;;4986537;28;20947;-65
2021/08/22 05:48:33;;;;;;;4.73;3.47;;;23.90;60.80;;;;;;4986589;28;20398;-63
2021/08/22 05:50:59;;;;;;;5.40;3.28;;;23.90;61.00;;;;;;4986443;28;20428;-65
2021/08/22 05:53:25;;;;;;;4.90;3.33;;;23.90;61.00;;;;;;4986661;28;20449;-65
2021/08/22 05:55:50;;;;;;;6.20;3.40;;;23.90;61.10;;;;;;4985928;28;20839;-65
2021/08/22 05:58:16;;;;;;;5.00;3.33;;;23.90;61.10;;;;;;4985158;28;20395;-64
2021/08/22 06:00:41;;;;;;;4.77;3.20;;;23.90;61.20;;;;;;4986410;28;20477;-66
2021/08/22 06:03:07;;;;;;;4.60;3.08;;;23.90;61.30;;;;;;4986726;28;20381;-64
2021/08/22 06:05:33;;;;;;;5.07;3.13;;;24.00;61.50;;;;;;4986239;28;20481;-62
2021/08/22 06:07:59;;;;;;;4.60;3.08;;;23.90;61.60;;;;;;4986269;28;20440;-64
2021/08/22 06:10:24;;;;;;;5.22;2.90;;;23.90;61.70;;;;;;5017815;28;20413;-65
2021/08/22 06:12:50;;;;;;;6.27;3.00;;;23.90;61.70;;;;;;4986220;28;20390;-63
2021/08/22 06:15:15;;;;;;;4.50;2.97;;;23.90;61.70;;;;;;4985982;28;21237;-64
2021/08/22 06:17:41;;;;;;;5.37;3.23;;;23.90;61.80;;;;;;4984195;28;21300;-63
2021/08/22 06:20:07;;;;;;;4.57;3.03;;;23.90;61.80;;;;;;4986089;28;20395;-65
2021/08/22 06:22:33;;;;;;;6.28;3.22;;;23.90;62.40;;;;;;4985908;28;20398;-65
2021/08/22 06:24:58;;;;;;;4.00;3.00;;;23.90;62.10;;;;;;4985982;28;20941;-65
2021/08/22 06:27:24;;;;;;;3.93;3.00;;;23.90;62.30;;;;;;4985961;28;20898;-64
2021/08/22 06:29:50;;;;;;;6.15;3.25;;;23.90;62.40;;;;;;4985554;28;20382;-64
2021/08/22 06:32:15;;;;;;;5.33;3.30;;;23.90;62.80;;;;;;4985712;28;20403;-65
2021/08/22 06:34:41;;;;;;;5.90;3.17;;;23.90;62.40;;;;;;4985975;28;20431;-65
2021/08/22 06:37:09;;;;;;;5.88;3.00;;;23.90;62.50;;;;;;4985569;28;20394;-64
2021/08/22 06:39:40;;;;;;;4.93;3.38;;;23.90;62.70;;;;;;4985793;28;20395;-64
2021/08/22 06:42:06;;;;;;;5.47;3.50;;;23.90;62.80;;;;;;4985212;28;20485;-64
2021/08/22 06:44:33;;;;;;;5.20;3.35;;;23.90;62.50;;;;;;4985670;28;20461;-64
2021/08/22 06:46:59;;;;;;;5.20;3.08;;;23.90;62.10;;;;;;4984889;28;20437;-65
2021/08/22 06:49:25;;;;;;;4.00;2.80;;;23.90;62.10;;;;;;4985527;28;20481;-65
2021/08/22 06:51:50;;;;;;;5.20;2.90;;;23.90;62.10;;;;;;4985194;28;20403;-65
2021/08/22 06:54:16;;;;;;;7.22;3.50;;;23.90;62.40;;;;;;4985318;28;20948;-64
2021/08/22 06:56:42;;;;;;;6.17;3.20;;;24.00;62.80;;;;;;4985636;28;20386;-65
2021/08/22 06:59:07;;;;;;;5.35;3.20;;;24.00;62.50;;;;;;4985258;28;20457;-65
2021/08/22 07:01:33;;;;;;;5.93;3.67;;;24.00;62.80;;;;;;4985514;28;20453;-65
2021/08/22 07:03:59;;;;;;;5.68;3.60;;;24.00;63.00;;;;;;4984653;28;20541;-65
2021/08/22 07:06:24;;;;;;;5.17;3.43;;;24.00;63.40;;;;;;4985611;28;20427;-64
2021/08/22 07:08:50;;;;;;;5.35;3.33;;;24.00;62.80;;;;;;4984986;28;20921;-64
2021/08/22 07:11:16;;;;;;;5.53;3.20;;;24.00;63.20;;;;;;4985263;28;20409;-64
2021/08/22 07:13:41;;;;;;;4.53;3.10;;;24.00;62.50;;;;;;4984890;28;20405;-64
2021/08/22 07:16:07;;;;;;;4.90;3.38;;;24.00;62.50;;;;;;4985076;28;20409;-64
2021/08/22 07:18:33;;;;;;;4.30;3.10;;;24.00;62.80;;;;;;4985182;28;20439;-64
2021/08/22 07:20:58;;;;;;;5.90;3.58;;;24.00;62.60;;;;;;4984804;28;20868;-64
2021/08/22 07:23:24;;;;;;;6.30;3.30;;;23.90;62.80;;;;;;4985124;28;20465;-65
2021/08/22 07:25:51;;;;;;;8.02;3.53;;;24.00;62.70;;;;;;4983930;28;20426;-65
2021/08/22 07:28:17;;;;;;;5.03;3.30;;;24.00;62.70;;;;;;4985142;28;20429;-64
2021/08/22 07:30:43;;;;;;;3.88;2.95;;;23.90;62.70;;;;;;4984872;28;20386;-64
2021/08/22 07:33:09;;;;;;;4.10;3.20;;;23.90;62.70;;;;;;4984681;28;20482;-64
2021/08/22 07:35:35;;;;;;;4.15;2.85;;;23.90;62.50;;;;;;4984763;28;20405;-65
2021/08/22 07:38:01;;;;;;;3.60;2.80;;;23.90;62.40;;;;;;4984030;28;20391;-64
2021/08/22 07:40:26;;;;;;;4.40;2.90;;;23.90;62.30;;;;;;4984784;28;20401;-64
2021/08/22 07:42:52;;;;;;;4.35;3.05;;;23.90;62.20;;;;;;4984520;28;20419;-65
2021/08/22 07:45:18;;;;;;;3.63;2.80;;;23.90;62.20;;;;;;4984405;28;20457;-64
2021/08/22 07:47:44;;;;;;;4.50;3.15;;;24.00;62.30;;;;;;4983879;28;20448;-62
2021/08/22 07:50:10;;;;;;;4.15;2.88;;;23.90;62.20;;;;;;4984220;28;20481;-65
2021/08/22 07:52:36;;;;;;;3.75;3.05;;;23.90;62.20;;;;;;4984465;28;20426;-65
2021/08/22 07:55:02;;;;;;;4.18;2.75;;;23.90;62.10;;;;;;4984213;28;20465;-63
2021/08/22 07:57:31;;;;;;;3.40;2.77;;;23.90;62.10;;;;;;4984463;28;20425;-65
2021/08/22 07:59:56;;;;;;;4.30;2.83;;;23.90;62.20;;;;;;4982733;28;20747;-65
2021/08/22 08:02:22;;;;;;;5.10;2.90;;;23.90;62.20;;;;;;4984243;28;20391;-65
2021/08/22 08:04:50;;;;;;;4.40;2.87;;;23.90;62.00;;;;;;4984621;28;20390;-65
2021/08/22 08:07:16;;;;;;;4.22;2.92;;;24.00;62.00;;;;;;4983711;28;20897;-65
2021/08/22 08:09:42;;;;;;;4.50;2.97;;;23.90;62.10;;;;;;4983015;28;20386;-65
2021/08/22 08:12:07;;;;;;;3.93;3.00;;;23.90;62.10;;;;;;4982021;28;20484;-64
2021/08/22 08:14:33;;;;;;;3.45;2.80;;;23.90;62.10;;;;;;4982486;28;20452;-64
2021/08/22 08:17:00;;;;;;;4.40;2.87;;;23.90;62.10;;;;;;4982913;28;20440;-66
2021/08/22 08:19:36;;;;;;;3.33;2.92;;;23.90;62.10;;;;;;5084682;27;20372;-66
2021/08/22 08:22:02;;;;;;;3.72;2.78;;;23.90;62.10;;;;;;5076456;28;20399;-65
2021/08/22 08:24:28;;;;;;;3.55;2.67;;;23.90;62.10;;;;;;5078400;28;20743;-64
2021/08/22 08:26:53;;;;;;;3.40;2.73;;;24.00;62.10;;;;;;5077866;28;20903;-62
2021/08/22 08:29:19;;;;;;;3.15;2.47;;;24.00;62.00;;;;;;5078604;28;20387;-65
2021/08/22 08:31:45;;;;;;;3.17;2.47;;;24.00;62.00;;;;;;5078060;28;21006;-65
2021/08/22 08:34:10;;;;;;;3.43;2.60;;;24.00;62.00;;;;;;5078375;28;21329;-66
2021/08/22 08:36:36;;;;;;;3.80;2.65;;;23.90;62.40;;;;;;5064573;28;20390;-64
2021/08/22 08:39:01;;;;;;;3.30;2.53;;;24.00;62.10;;;;;;5078064;28;20411;-65
2021/08/22 08:41:27;;;;;;;3.22;2.70;;;23.90;61.90;;;;;;5071790;28;20414;-65
2021/08/22 08:43:55;;;;;;;3.10;2.60;;;24.00;62.00;;;;;;5077379;28;20793;-62
2021/08/22 08:46:32;;;;;;;3.05;2.45;;;24.00;62.00;;;;;;5078018;28;20402;-66
2021/08/22 08:49:26;;;;;;;4.50;2.70;;;24.00;61.90;;;;;;5078323;28;20502;-65
2021/08/22 08:52:13;;;;;;;3.10;2.70;;;24.00;62.00;;;;;;5077657;28;20386;-64
2021/08/22 08:54:48;;;;;;;3.30;2.33;;;24.00;61.80;;;;;;5078086;28;20889;-65
2021/08/22 08:57:15;;;;;;;3.00;2.47;;;24.10;61.80;;;;;;5077821;28;20452;-64
2021/08/22 08:59:41;;;;;;;3.15;2.45;;;24.10;62.10;;;;;;5077986;28;20871;-64
2021/08/22 09:02:07;;;;;;;3.20;2.50;;;24.10;61.90;;;;;;5076678;28;20794;-64
2021/08/22 09:04:57;;;;;;;3.37;2.70;;;24.10;61.90;;;;;;5078168;28;20391;-63
2021/08/22 09:07:40;;;;;;;3.30;2.65;;;24.10;62.00;;;;;;5077977;28;20391;-62
2021/08/22 09:10:30;;;;;;;3.17;2.35;;;24.20;62.00;;;;;;5077621;28;20383;-65
2021/08/22 09:13:33;;;;;;;3.22;2.72;;;24.20;61.90;;;;;;5078164;28;20378;-65
2021/08/22 09:16:30;;;;;;;3.42;2.70;;;24.20;61.70;;;;;;5077374;28;20444;-65
2021/08/22 09:19:36;;;;;;;3.55;2.55;;;24.20;61.80;;;;;;5077378;28;20893;-65
2021/08/22 09:22:36;;;;;;;3.20;2.60;;;24.30;61.70;;;;;;5077122;28;20746;-62
2021/08/22 09:25:39;;;;;;;4.88;2.67;;;24.20;61.80;;;;;;5077557;28;20423;-63
2021/08/22 09:28:24;;;;;;;6.25;2.85;;;24.20;61.70;;;;;;5077202;28;20392;-67
2021/08/22 09:31:11;;;;;;;4.60;2.70;;;24.20;62.00;;;;;;5064667;28;20376;-65
2021/08/22 09:34:07;;;;;;;4.38;2.70;;;24.30;61.80;;;;;;5063399;28;20388;-66
2021/08/22 09:37:11;;;;;;;3.28;2.42;;;24.30;61.70;;;;;;5062505;28;20398;-66
2021/08/22 09:40:14;;;;;;;3.35;2.70;;;24.30;61.60;;;;;;5033256;28;20926;-66
2021/08/22 09:43:12;;;;;;;4.00;2.65;;;24.30;61.50;;;;;;5056609;28;20475;-65
2021/08/22 09:46:02;;;;;;;5.30;2.70;;;24.50;61.70;;;;;;5064412;28;20396;-62
2021/08/22 09:48:56;;;;;;;5.07;2.80;;;24.40;61.70;;;;;;5063932;28;20399;-62
2021/08/22 09:51:59;;;;;;;3.47;2.60;;;24.40;61.70;;;;;;5062756;28;20392;-65
2021/08/22 09:54:43;;;;;;;3.95;2.67;;;24.40;61.70;;;;;;5064063;28;20456;-65
2021/08/22 09:57:28;;;;;;;4.68;2.70;;;24.40;61.60;;;;;;5063460;28;20383;-64
2021/08/22 10:00:30;;;;;;;3.47;2.50;;;24.50;61.60;;;;;;5060662;28;20474;-65
2021/08/22 10:03:17;;;;;;;3.20;2.50;;;24.40;61.50;;;;;;5063572;28;20415;-65
2021/08/22 10:05:48;;;;;;;5.45;2.60;;;24.50;61.70;;;;;;5063362;28;20453;-65
2021/08/22 10:08:20;;;;;;;3.25;2.60;;;24.50;61.70;;;;;;5063350;28;20399;-65
2021/08/22 10:10:46;;;;;;;3.40;2.70;;;24.40;61.50;;;;;;5063413;28;20391;-66
2021/08/22 10:13:11;;;;;;;3.37;2.60;;;24.40;61.60;;;;;;5062979;28;21090;-65
2021/08/22 10:15:43;;;;;;;3.83;2.60;;;24.40;61.60;;;;;;5063210;28;20933;-65
2021/08/22 10:18:08;;;;;;;3.30;2.50;;;24.40;61.70;;;;;;5062481;28;20451;-64
2021/08/22 10:20:44;;;;;;;3.63;2.42;;;24.50;61.60;;;;;;5063137;28;20506;-65
2021/08/22 10:23:32;;;;;;;3.65;2.60;;;24.50;61.40;;;;;;5063499;28;20670;-64
2021/08/22 10:25:57;;;;;;;4.10;2.67;;;24.50;61.40;;;;;;5052203;28;20400;-63
2021/08/22 10:28:45;;;;;;;3.00;2.50;;;24.50;61.30;;;;;;5061505;28;20985;-65
2021/08/22 10:31:12;;;;;;;2.78;2.25;;;24.50;61.20;;;;;;5061391;28;20384;-65
2021/08/22 10:34:12;;;;;;;3.85;2.60;;;24.60;61.20;;;;;;5061759;28;20388;-63
2021/08/22 10:36:38;;;;;;;3.78;2.50;;;24.60;61.10;;;;;;5061889;28;20396;-63
2021/08/22 10:39:25;;;;;;;3.53;2.50;;;24.60;61.40;;;;;;5061662;28;20415;-62
2021/08/22 10:41:59;;;;;;;4.22;2.60;;;24.60;61.30;;;;;;5061161;28;20382;-65
2021/08/22 10:44:36;;;;;;;3.40;2.50;;;24.60;61.30;;;;;;5060559;28;20428;-65
2021/08/22 10:47:03;;;;;;;3.63;2.45;;;24.60;61.30;;;;;;5062580;28;20478;-63
2021/08/22 10:49:50;;;;;;;4.00;2.40;;;24.60;61.50;;;;;;5062482;28;20483;-66
2021/08/22 10:52:45;;;;;;;3.13;2.42;;;24.60;61.60;;;;;;5062444;28;20910;-64
2021/08/22 10:55:14;;;;;;;3.30;2.63;;;24.50;61.60;;;;;;5053701;28;20886;-64
2021/08/22 10:57:48;;;;;;;3.55;2.65;;;24.50;61.60;;;;;;5062186;28;20880;-65
2021/08/22 11:00:22;;;;;;;3.50;2.80;;;24.50;61.50;;;;;;5061860;28;20453;-64
2021/08/22 11:02:48;;;;;;;5.43;3.05;;;24.50;61.60;;;;;;5050571;28;20457;-64
2021/08/22 11:05:19;;;;;;;4.15;2.63;;;24.50;61.50;;;;;;5061823;28;20487;-66
2021/08/22 11:07:46;;;;;;;4.80;2.90;;;24.50;61.60;;;;;;5062420;28;20387;-66
2021/08/22 11:10:16;;;;;;;5.25;2.78;;;24.30;61.50;;;;;;5061507;28;20395;-65
2021/08/22 11:12:42;;;;;;;3.87;2.80;;;24.50;61.70;;;;;;5061718;28;20432;-65
2021/08/22 11:15:21;;;;;;;7.30;2.90;;;24.40;61.70;;;;;;5053565;28;20390;-66
2021/08/22 11:17:51;;;;;;;7.22;3.03;;;24.50;61.90;;;;;;5061827;28;20423;-64
2021/08/22 11:20:19;;;;;;;5.60;3.00;;;24.40;62.00;;;;;;5048423;28;20396;-65
2021/08/22 11:22:45;;;;;;;6.13;3.10;;;24.50;62.20;;;;;;5061847;28;20470;-66
2021/08/22 11:25:11;;;;;;;4.15;2.90;;;24.50;62.30;;;;;;5062198;28;20895;-64
2021/08/22 11:27:37;;;;;;;6.57;3.00;;;24.40;62.50;;;;;;5052182;28;20400;-64
2021/08/22 11:30:08;;;;;;;5.30;3.10;;;24.50;62.60;;;;;;5061908;28;20387;-64
2021/08/22 11:32:34;;;;;;;4.78;3.08;;;24.40;62.60;;;;;;5062431;28;20396;-65
2021/08/22 11:35:21;;;;;;;5.27;3.17;;;24.50;62.70;;;;;;5062035;28;21462;-64
2021/08/22 11:37:47;;;;;;;4.53;2.97;;;24.40;63.00;;;;;;5061433;28;20477;-65
2021/08/22 11:40:18;;;;;;;4.00;2.92;;;24.50;62.80;;;;;;5060416;28;20379;-64
2021/08/22 11:42:49;;;;;;;4.82;2.80;;;24.50;62.60;;;;;;5060339;28;20477;-65
2021/08/22 11:45:42;;;;;;;4.72;3.15;;;24.60;62.70;;;;;;5060717;28;20386;-65
2021/08/22 11:48:19;;;;;;;4.13;2.83;;;24.60;62.70;;;;;;5060382;28;20399;-65
2021/08/22 11:50:46;;;;;;;3.90;2.78;;;24.60;62.50;;;;;;5061138;28;20391;-64
2021/08/22 11:53:12;;;;;;;4.00;2.88;;;24.60;62.40;;;;;;5055275;28;20388;-64
2021/08/22 11:55:39;;;;;;;3.07;2.53;;;24.60;62.30;;;;;;5060871;28;20511;-66
2021/08/22 11:58:10;;;;;;;3.83;2.90;;;24.60;62.20;;;;;;5061216;28;20494;-65
2021/08/22 12:00:47;;;;;;;3.97;2.90;;;24.60;62.10;;;;;;5062347;28;20474;-64
2021/08/22 12:03:13;;;;;;;5.57;2.90;;;24.60;62.00;;;;;;5062420;28;20392;-65
2021/08/22 12:05:59;;;;;;;3.83;2.60;;;24.60;62.20;;;;;;5062033;28;20384;-65
2021/08/22 12:08:25;;;;;;;4.90;2.65;;;24.60;62.00;;;;;;5051310;28;20466;-65
2021/08/22 12:11:11;;;;;;;4.03;2.60;;;24.60;61.90;;;;;;5061801;28;20508;-63
2021/08/22 12:13:39;;;;;;;4.22;2.70;;;24.70;61.90;;;;;;5062369;28;20376;-65
2021/08/22 12:16:32;;;;;;;3.83;2.60;;;24.70;61.80;;;;;;5061676;28;20423;-62
2021/08/22 12:19:23;;;;;;;4.90;2.80;;;24.70;62.00;;;;;;5061806;28;20419;-65
2021/08/22 12:21:50;;;;;;;3.17;2.55;;;24.70;62.10;;;;;;5061933;28;20507;-65
2021/08/22 12:24:29;;;;;;;3.33;2.60;;;24.70;61.70;;;;;;5061557;28;20890;-64
2021/08/22 12:26:59;;;;;;;5.15;2.78;;;24.70;62.20;;;;;;5062252;28;20383;-65
2021/08/22 12:29:36;;;;;;;3.30;2.50;;;24.70;61.60;;;;;;5061219;28;20387;-65
2021/08/22 12:32:13;;;;;;;4.68;2.65;;;24.70;61.60;;;;;;5061594;28;20395;-65
2021/08/22 12:34:39;;;;;;;3.75;2.50;;;24.70;61.50;;;;;;5062313;28;20395;-63
2021/08/22 12:37:12;;;;;;;2.90;2.45;;;24.70;61.50;;;;;;5061917;28;20395;-65
2021/08/22 12:39:39;;;;;;;2.95;2.50;;;24.70;61.50;;;;;;5061918;28;20813;-66
2021/08/22 12:42:04;;;;;;;2.70;2.30;;;24.70;61.40;;;;;;5061436;28;20388;-65
2021/08/22 12:44:31;;;;;;;2.95;2.40;;;24.70;61.40;;;;;;5062063;28;20941;-65
2021/08/22 12:47:02;;;;;;;3.60;2.70;;;24.70;61.40;;;;;;5062164;28;21317;-65
2021/08/22 12:49:29;;;;;;;2.90;2.38;;;24.70;61.40;;;;;;5062182;28;20399;-66
2021/08/22 12:52:05;;;;;;;3.67;2.50;;;24.70;61.40;;;;;;5061732;28;21172;-65
2021/08/22 12:54:32;;;;;;;3.10;2.50;;;24.70;61.40;;;;;;5061888;28;20952;-63
2021/08/22 12:56:58;;;;;;;2.70;2.20;;;24.70;61.40;;;;;;5061593;28;20399;-67
2021/08/22 12:59:25;;;;;;;3.85;2.80;;;24.70;61.30;;;;;;5060766;28;20423;-65
2021/08/22 13:01:51;;;;;;;6.10;2.70;;;24.70;61.30;;;;;;5061789;28;20376;-65
2021/08/22 13:04:20;;;;;;;4.20;2.92;;;24.70;61.60;;;;;;5061652;28;20886;-65